createdAt,value
2023-03-24T00:00:55.846Z,982.21
2023-03-24T00:01:55.815Z,982.22
2023-03-24T00:02:55.905Z,982.17
2023-03-24T00:03:55.887Z,982.19
2023-03-24T00:04:55.797Z,982.22
2023-03-24T00:05:55.786Z,982.23
2023-03-24T00:06:55.775Z,982.15
2023-03-24T00:07:55.772Z,982.15
2023-03-24T00:08:57.495Z,982.10
2023-03-24T00:09:55.743Z,982.15
2023-03-24T00:10:55.746Z,982.15
2023-03-24T00:11:55.723Z,982.13
2023-03-24T00:12:55.724Z,982.10
2023-03-24T00:13:55.723Z,982.12
2023-03-24T00:14:55.717Z,982.08
2023-03-24T00:15:55.774Z,982.08
2023-03-24T00:16:55.756Z,982.06
2023-03-24T00:17:55.726Z,982.06
2023-03-24T00:18:55.671Z,982.04
2023-03-24T00:19:55.670Z,982.06
2023-03-24T00:20:55.666Z,981.95
2023-03-24T00:21:55.993Z,981.95
2023-03-24T00:23:55.238Z,981.95
2023-03-24T00:24:55.223Z,981.99
2023-03-24T00:25:55.218Z,981.94
2023-03-24T00:26:56.308Z,981.97
2023-03-24T00:27:57.157Z,981.88
2023-03-24T00:28:56.295Z,981.85
2023-03-24T00:29:56.286Z,981.85
2023-03-24T00:30:56.291Z,981.86
2023-03-24T00:31:56.278Z,981.82
2023-03-24T00:32:56.288Z,981.83
2023-03-24T00:33:56.250Z,981.79
2023-03-24T00:34:56.250Z,981.81
2023-03-24T00:35:57.183Z,981.80
2023-03-24T00:36:56.242Z,981.79
2023-03-24T00:37:56.230Z,981.81
2023-03-24T00:38:56.203Z,981.74
2023-03-24T00:39:56.215Z,981.79
2023-03-24T00:40:56.193Z,981.77
2023-03-24T00:41:56.195Z,981.76
2023-03-24T00:42:56.173Z,981.76
2023-03-24T00:43:56.185Z,981.67
2023-03-24T00:44:56.172Z,981.63
2023-03-24T00:45:56.158Z,981.66
2023-03-24T00:46:56.187Z,981.65
2023-03-24T00:47:56.177Z,981.64
2023-03-24T00:48:56.237Z,981.61
2023-03-24T00:49:56.121Z,981.62
2023-03-24T00:50:56.125Z,981.60
2023-03-24T00:51:57.108Z,981.59
2023-03-24T00:52:56.112Z,981.56
2023-03-24T00:53:56.103Z,981.53
2023-03-24T00:54:56.108Z,981.54
2023-03-24T00:55:56.080Z,981.55
2023-03-24T00:56:56.249Z,981.51
2023-03-24T00:57:56.065Z,981.49
2023-03-24T00:58:56.064Z,981.54
2023-03-24T00:59:56.043Z,981.45
2023-03-24T01:00:56.110Z,981.42
2023-03-24T01:01:56.071Z,981.38
2023-03-24T01:02:56.242Z,981.28
2023-03-24T01:03:56.025Z,981.12
2023-03-24T01:04:56.024Z,981.17
2023-03-24T01:05:56.011Z,981.26
2023-03-24T01:06:55.997Z,981.21
2023-03-24T01:07:55.986Z,981.16
2023-03-24T01:08:55.985Z,981.18
2023-03-24T01:09:55.966Z,981.19
2023-03-24T01:10:55.950Z,981.17
2023-03-24T01:11:55.969Z,981.18
2023-03-24T01:12:55.964Z,981.13
2023-03-24T01:13:55.943Z,981.10
2023-03-24T01:14:55.929Z,981.05
2023-03-24T01:15:55.941Z,981.01
2023-03-24T01:16:55.919Z,980.95
2023-03-24T01:17:56.983Z,980.99
2023-03-24T01:18:55.910Z,980.96
2023-03-24T01:19:55.890Z,981.00
2023-03-24T01:20:55.906Z,981.02
2023-03-24T01:21:55.895Z,980.99
2023-03-24T01:22:55.862Z,981.02
2023-03-24T01:23:55.865Z,981.01
2023-03-24T01:24:55.857Z,981.05
2023-03-24T01:25:55.850Z,981.01
2023-03-24T01:26:55.862Z,980.99
2023-03-24T01:27:55.834Z,980.98
2023-03-24T01:28:55.822Z,980.99
2023-03-24T01:29:55.799Z,981.03
2023-03-24T01:30:55.806Z,981.00
2023-03-24T01:31:56.131Z,980.99
2023-03-24T01:32:55.833Z,981.02
2023-03-24T01:33:55.799Z,981.07
2023-03-24T01:34:55.764Z,980.99
2023-03-24T01:35:55.812Z,980.96
2023-03-24T01:36:56.613Z,980.97
2023-03-24T01:37:55.749Z,980.97
2023-03-24T01:38:55.738Z,980.97
2023-03-24T01:39:55.737Z,980.99
2023-03-24T01:40:55.717Z,980.84
2023-03-24T01:41:55.726Z,980.79
2023-03-24T01:42:55.756Z,980.77
2023-03-24T01:43:56.611Z,980.78
2023-03-24T01:44:55.687Z,980.84
2023-03-24T01:45:56.655Z,980.80
2023-03-24T01:46:56.683Z,980.78
2023-03-24T01:47:55.732Z,980.69
2023-03-24T01:48:55.659Z,980.76
2023-03-24T01:49:56.183Z,980.72
2023-03-24T01:50:55.636Z,980.77
2023-03-24T01:51:55.635Z,980.67
2023-03-24T01:52:55.631Z,980.68
2023-03-24T01:53:56.694Z,980.61
2023-03-24T01:54:55.630Z,980.65
2023-03-24T01:55:55.643Z,980.62
2023-03-24T01:56:55.659Z,980.61
2023-03-24T01:57:55.582Z,980.61
2023-03-24T01:58:55.575Z,980.63
2023-03-24T01:59:55.556Z,980.60
2023-03-24T02:00:55.587Z,980.60
2023-03-24T02:01:56.193Z,980.60
2023-03-24T02:02:55.556Z,980.56
2023-03-24T02:03:56.209Z,980.60
2023-03-24T02:04:55.550Z,980.59
2023-03-24T02:05:55.518Z,980.58
2023-03-24T02:06:55.532Z,980.57
2023-03-24T02:07:55.503Z,980.56
2023-03-24T02:08:55.530Z,980.52
2023-03-24T02:09:55.491Z,980.47
2023-03-24T02:10:55.481Z,980.41
2023-03-24T02:11:55.485Z,980.41
2023-03-24T02:12:55.486Z,980.35
2023-03-24T02:13:55.467Z,980.37
2023-03-24T02:14:55.453Z,980.39
2023-03-24T02:15:55.479Z,980.40
2023-03-24T02:16:55.433Z,980.40
2023-03-24T02:17:56.170Z,980.35
2023-03-24T02:18:55.420Z,980.30
2023-03-24T02:19:55.414Z,980.28
2023-03-24T02:20:55.418Z,980.26
2023-03-24T02:21:55.402Z,980.29
2023-03-24T02:22:55.403Z,980.28
2023-03-24T02:23:55.372Z,980.28
2023-03-24T02:24:55.422Z,980.25
2023-03-24T02:25:55.376Z,980.21
2023-03-24T02:26:55.344Z,980.19
2023-03-24T02:27:56.198Z,980.21
2023-03-24T02:28:55.348Z,980.22
2023-03-24T02:29:55.338Z,980.17
2023-03-24T02:30:55.314Z,980.14
2023-03-24T02:31:55.360Z,980.17
2023-03-24T02:32:55.310Z,980.16
2023-03-24T02:33:55.305Z,980.13
2023-03-24T02:34:55.292Z,980.12
2023-03-24T02:35:55.328Z,980.06
2023-03-24T02:36:55.278Z,980.08
2023-03-24T02:37:55.281Z,980.08
2023-03-24T02:38:55.253Z,980.10
2023-03-24T02:39:56.257Z,980.04
2023-03-24T02:40:55.241Z,979.98
2023-03-24T02:41:55.227Z,979.96
2023-03-24T02:42:55.232Z,979.99
2023-03-24T02:43:55.227Z,979.96
2023-03-24T02:44:55.232Z,980.00
2023-03-24T02:45:55.316Z,979.98
2023-03-24T02:46:55.197Z,979.94
2023-03-24T02:47:55.263Z,979.93
2023-03-24T02:48:55.184Z,979.87
2023-03-24T02:49:55.177Z,979.88
2023-03-24T02:50:55.164Z,979.88
2023-03-24T02:51:55.166Z,979.87
2023-03-24T02:52:55.140Z,979.88
2023-03-24T02:53:55.129Z,979.83
2023-03-24T02:54:55.122Z,979.85
2023-03-24T02:55:55.114Z,979.86
2023-03-24T02:56:55.193Z,979.78
2023-03-24T02:57:55.122Z,979.84
2023-03-24T02:58:55.113Z,979.86
2023-03-24T02:59:55.086Z,979.81
2023-03-24T03:00:55.090Z,979.76
2023-03-24T03:01:55.131Z,979.75
2023-03-24T03:02:55.078Z,979.76
2023-03-24T03:03:55.105Z,979.69
2023-03-24T03:04:55.080Z,979.68
2023-03-24T03:05:55.064Z,979.65
2023-03-24T03:06:55.025Z,979.63
2023-03-24T03:07:55.025Z,979.61
2023-03-24T03:08:55.022Z,979.66
2023-03-24T03:09:55.018Z,979.67
2023-03-24T03:10:55.000Z,979.65
2023-03-24T03:11:55.012Z,979.65
2023-03-24T03:12:54.998Z,979.60
2023-03-24T03:13:54.984Z,979.57
2023-03-24T03:14:54.977Z,979.58
2023-03-24T03:15:55.065Z,979.52
2023-03-24T03:16:54.954Z,979.60
2023-03-24T03:17:55.022Z,979.56
2023-03-24T03:18:54.949Z,979.55
2023-03-24T03:19:54.927Z,979.51
2023-03-24T03:20:54.936Z,979.51
2023-03-24T03:21:54.918Z,979.43
2023-03-24T03:22:54.947Z,979.43
2023-03-24T03:23:54.912Z,979.48
2023-03-24T03:24:54.882Z,979.46
2023-03-24T03:25:54.894Z,979.46
2023-03-24T03:26:54.872Z,979.41
2023-03-24T03:27:54.886Z,979.45
2023-03-24T03:28:54.879Z,979.47
2023-03-24T03:29:54.854Z,979.39
2023-03-24T03:30:54.901Z,979.45
2023-03-24T03:31:54.830Z,979.40
2023-03-24T03:32:54.871Z,979.46
2023-03-24T03:33:54.821Z,979.36
2023-03-24T03:36:01.175Z,979.36
2023-03-24T03:37:01.105Z,979.30
2023-03-24T03:38:02.190Z,979.34
2023-03-24T03:39:02.177Z,979.36
2023-03-24T03:40:02.158Z,979.34
2023-03-24T03:41:02.164Z,979.33
2023-03-24T03:42:02.171Z,979.32
2023-03-24T03:43:02.152Z,979.30
2023-03-24T03:44:02.164Z,979.29
2023-03-24T03:45:02.122Z,979.26
2023-03-24T03:46:02.194Z,979.23
2023-03-24T03:47:02.114Z,979.24
2023-03-24T03:48:02.192Z,979.20
2023-03-24T03:49:02.130Z,979.16
2023-03-24T21:23:03.745Z,982.07
2023-03-24T21:24:03.706Z,981.96
2023-03-24T21:25:03.712Z,982.00
2023-03-24T21:26:03.672Z,982.05
2023-03-24T21:27:03.671Z,982.00
2023-03-24T21:28:03.667Z,982.01
2023-03-24T21:29:03.678Z,981.98
2023-03-24T21:30:03.667Z,982.03
2023-03-24T21:31:03.730Z,982.01
2023-03-24T21:32:03.652Z,982.10
2023-03-24T21:33:03.677Z,982.08
2023-03-24T21:34:03.616Z,981.99
2023-03-24T21:35:03.599Z,982.02
2023-03-24T21:36:03.618Z,982.04
2023-03-24T21:37:03.596Z,981.95
2023-03-24T21:38:03.586Z,981.99
2023-03-24T21:39:03.581Z,981.99
2023-03-24T21:40:03.564Z,981.98
2023-03-24T21:41:03.550Z,982.00
2023-03-24T21:42:03.553Z,982.01
2023-03-24T21:43:03.540Z,982.02
2023-03-24T21:44:03.545Z,981.99
2023-03-24T21:45:03.529Z,981.99
2023-03-24T21:46:03.529Z,982.01
2023-03-24T21:47:03.533Z,981.95
2023-03-24T21:48:03.638Z,981.99
2023-03-24T21:49:04.602Z,981.98
2023-03-24T21:50:04.591Z,982.01
2023-03-24T21:51:04.581Z,982.03
2023-03-24T21:52:04.645Z,982.03
2023-03-24T21:53:04.553Z,982.00
2023-03-24T21:54:04.610Z,981.98
2023-03-24T21:55:04.551Z,981.96
2023-03-24T21:56:04.791Z,981.91
2023-03-24T21:57:04.555Z,981.92
2023-03-24T21:58:04.537Z,981.96
2023-03-24T21:59:04.580Z,981.89
2023-03-24T22:00:04.546Z,981.86
2023-03-24T22:01:04.534Z,981.78
2023-03-24T22:02:04.500Z,981.75
2023-03-24T22:03:05.301Z,981.78
2023-03-24T22:04:04.560Z,981.78
2023-03-24T22:05:04.497Z,981.75
2023-03-24T22:06:04.461Z,981.83
2023-03-24T22:07:04.475Z,981.82
2023-03-24T22:08:04.444Z,981.82
2023-03-24T22:09:04.435Z,981.87
2023-03-24T22:10:04.422Z,981.87
2023-03-24T22:11:04.502Z,981.93
2023-03-24T22:12:04.421Z,981.92
2023-03-24T22:13:04.425Z,981.95
2023-03-24T22:14:04.403Z,981.93
2023-03-24T22:15:04.407Z,981.99
2023-03-24T22:16:04.388Z,982.01
2023-03-24T22:17:04.465Z,981.91
2023-03-24T22:18:04.425Z,981.93
2023-03-24T22:19:04.361Z,981.89
2023-03-24T22:20:04.375Z,981.90
2023-03-24T22:21:04.435Z,981.91
2023-03-24T22:22:04.977Z,981.92
2023-03-24T22:23:04.341Z,981.98
2023-03-24T22:24:04.322Z,982.06
2023-03-24T22:25:04.324Z,982.02
2023-03-24T22:26:04.369Z,982.12
2023-03-24T22:27:04.293Z,982.21
2023-03-24T22:28:04.275Z,982.19
2023-03-24T22:29:04.278Z,982.19
2023-03-24T22:30:04.278Z,982.26
2023-03-24T22:31:04.262Z,982.32
2023-03-24T22:32:04.283Z,982.39
2023-03-24T22:33:04.298Z,982.33
2023-03-24T22:34:04.233Z,982.36
2023-03-24T22:35:04.230Z,982.34
2023-03-24T22:36:04.260Z,982.36
2023-03-24T22:37:04.213Z,982.32
2023-03-24T22:38:04.203Z,982.31
2023-03-24T22:39:04.195Z,982.38
2023-03-24T22:40:04.982Z,982.35
2023-03-24T22:41:04.300Z,982.29
2023-03-24T22:42:06.063Z,982.36
2023-03-24T22:43:04.160Z,982.22
2023-03-24T22:44:04.160Z,982.31
2023-03-24T22:45:04.139Z,982.33
2023-03-24T22:46:04.151Z,982.25
2023-03-24T22:47:04.135Z,982.22
2023-03-24T22:48:04.160Z,982.21
2023-03-24T22:49:04.972Z,982.20
2023-03-24T22:50:04.137Z,982.14
2023-03-24T22:51:04.104Z,982.10
2023-03-24T22:52:04.089Z,982.13
2023-03-24T22:53:04.072Z,982.16
2023-03-24T22:54:04.091Z,982.08
2023-03-24T22:55:04.061Z,982.11
2023-03-24T22:56:04.056Z,982.05
2023-03-24T22:57:04.064Z,982.13
2023-03-24T22:58:04.032Z,982.06
2023-03-24T22:59:04.034Z,982.04
2023-03-24T23:00:04.023Z,982.07
2023-03-24T23:01:04.000Z,982.07
2023-03-24T23:02:09.809Z,982.10
2023-03-24T23:03:06.045Z,982.13
2023-03-24T23:04:04.023Z,982.14
2023-03-24T23:05:04.051Z,982.13
2023-03-24T23:06:03.973Z,982.10
2023-03-24T23:07:03.974Z,982.07
2023-03-24T23:08:03.973Z,982.13
2023-03-24T23:09:03.941Z,982.08
2023-03-24T23:10:04.063Z,982.04
2023-03-24T23:11:03.917Z,982.03
2023-03-24T23:12:03.923Z,982.02
2023-03-24T23:13:03.908Z,982.03
2023-03-24T23:14:03.905Z,982.02
2023-03-24T23:15:03.910Z,981.99
2023-03-24T23:16:03.898Z,982.05
2023-03-24T23:17:03.882Z,982.04
2023-03-24T23:18:03.885Z,982.03
2023-03-24T23:19:03.866Z,982.07
2023-03-24T23:20:03.871Z,982.10
2023-03-24T23:21:03.856Z,982.09
2023-03-24T23:22:03.836Z,982.15
2023-03-24T23:23:05.112Z,982.12
2023-03-24T23:24:03.820Z,982.09
2023-03-24T23:25:03.830Z,982.10
2023-03-24T23:26:03.838Z,982.09
2023-03-24T23:27:03.794Z,982.09
2023-03-24T23:28:04.491Z,982.04
2023-03-24T23:29:03.806Z,982.03
2023-03-24T23:30:03.793Z,982.03
2023-03-24T23:31:03.808Z,982.08
2023-03-24T23:32:03.768Z,982.11
2023-03-24T23:33:03.845Z,982.07
2023-03-24T23:34:03.739Z,982.09
2023-03-24T23:35:03.829Z,982.07
2023-03-24T23:36:03.743Z,982.02
2023-03-24T23:37:03.725Z,981.93
2023-03-24T23:38:03.710Z,981.91
2023-03-24T23:39:03.717Z,981.89
2023-03-24T23:40:03.695Z,981.89
2023-03-24T23:41:03.682Z,981.93
2023-03-24T23:42:03.745Z,981.88
2023-03-24T23:43:03.664Z,981.82
2023-03-24T23:44:03.652Z,981.76
2023-03-24T23:45:03.656Z,981.73
2023-03-24T23:46:03.676Z,981.77
2023-03-24T23:47:03.720Z,981.80
2023-03-24T23:48:03.671Z,981.79
2023-03-24T23:49:04.624Z,981.82
2023-03-24T23:50:03.622Z,981.79
2023-03-24T23:51:03.619Z,981.78
2023-03-24T23:52:03.598Z,981.81
2023-03-24T23:53:03.599Z,981.80
2023-03-24T23:54:03.578Z,981.76
2023-03-24T23:55:03.577Z,981.82
2023-03-24T23:56:03.574Z,981.81
2023-03-24T23:57:03.566Z,981.84
2023-03-24T23:58:03.556Z,981.88
2023-03-24T23:59:03.542Z,981.88
